PWSweather.com
Personal Weather Stations
Station Observations
EA5BZ
Nuevo Altabix, ElcheES

Nuevo AltabixElcheES

Lat: 38.276, Lon: -0.671

Elevation: 0

Station Type: Davis Vantage Pro 2

http://meteoelche.es

High Low Average
Temperature 65.4°F18.6°C 49.3°F9.6°C 57.1°F13.9°C
Dew Point 43.2°F6.2°C 32.2°F0.1°C 40.3°F4.6°C
Winds 17.9 mph 28.8 kmh 2.0 mph 3.2 kmh 8.0 mph SW12.9 kmh SW
Wind Gusts 29.8 mph48.0 kmh 2.9 mph4.7 kmh 13.0 mph20.9 kmh
Humidity 72% 29% 54%
Pressure 30.42 in1030.1 mb 30.26 in1024.7 mb -
Precipitation 0.00 in0.0 mm - -
Hour Temp Dew Point Humidity Winds Wind Gusts Pressure Precip Precip Rate Daily Precip Total
12:00 AM 60.6°F15.9°C 41.6°F5.3°C 50% 11.4 mph WSW18.3 kmh WSW 15.7 mph25.3 kmh 30.26 in1024.7 mb 0.00 in0.0 mm 0.00 in0.0 mm 0.00 in0.0 mm
12:05 AM 60.4°F15.8°C 41.7°F5.4°C 50% 11.1 mph WSW17.9 kmh WSW 15.2 mph24.5 kmh 30.26 in1024.7 mb 0.00 in0.0 mm 0.00 in0.0 mm 0.00 in0.0 mm
12:10 AM 60.4°F15.8°C 41.7°F5.4°C 50% 10.3 mph WSW16.6 kmh WSW 17.4 mph28.0 kmh 30.26 in1024.7 mb 0.00 in0.0 mm 0.00 in0.0 mm 0.00 in0.0 mm
12:15 AM 60.4°F15.8°C 41.6°F5.3°C 50% 10.4 mph WSW16.7 kmh WSW 16.8 mph27.0 kmh 30.26 in1024.7 mb 0.00 in0.0 mm 0.00 in0.0 mm 0.00 in0.0 mm
12:20 AM 60.3°F15.7°C 41.5°F5.3°C 50% 10.7 mph SW17.2 kmh SW 17.0 mph27.4 kmh 30.26 in1024.7 mb 0.00 in0.0 mm 0.00 in0.0 mm 0.00 in0.0 mm
12:25 AM 60.3°F15.7°C 41.5°F5.3°C 50% 10.9 mph WSW17.5 kmh WSW 15.9 mph25.6 kmh 30.26 in1024.7 mb 0.00 in0.0 mm 0.00 in0.0 mm 0.00 in0.0 mm
12:30 AM 60.2°F15.7°C 42.0°F5.6°C 51% 11.4 mph WSW18.3 kmh WSW 15.9 mph25.6 kmh 30.27 in1025.1 mb 0.00 in0.0 mm 0.00 in0.0 mm 0.00 in0.0 mm
12:35 AM 60.1°F15.6°C 41.9°F5.5°C 51% 11.3 mph WSW18.2 kmh WSW 14.8 mph23.8 kmh 30.27 in1025.1 mb 0.00 in0.0 mm 0.00 in0.0 mm 0.00 in0.0 mm
12:40 AM 60.0°F15.6°C 41.8°F5.4°C 51% 11.2 mph WSW18.0 kmh WSW 15.7 mph25.3 kmh 30.27 in1025.1 mb 0.00 in0.0 mm 0.00 in0.0 mm 0.00 in0.0 mm
12:45 AM 59.9°F15.5°C 41.7°F5.4°C 51% 11.1 mph WSW17.9 kmh WSW 15.9 mph25.6 kmh 30.27 in1025.1 mb 0.00 in0.0 mm 0.00 in0.0 mm 0.00 in0.0 mm
12:50 AM 59.8°F15.4°C 41.6°F5.3°C 51% 10.7 mph WSW17.2 kmh WSW 15.7 mph25.3 kmh 30.27 in1025.1 mb 0.00 in0.0 mm 0.00 in0.0 mm 0.00 in0.0 mm
12:55 AM 59.7°F15.4°C 41.6°F5.3°C 51% 10.6 mph WSW17.1 kmh WSW 13.0 mph20.9 kmh 30.27 in1025.1 mb 0.00 in0.0 mm 0.00 in0.0 mm 0.00 in0.0 mm
01:00 AM 59.7°F15.4°C 41.7°F5.4°C 51% 10.3 mph WSW16.6 kmh WSW 13.6 mph21.9 kmh 30.27 in1025.1 mb 0.00 in0.0 mm 0.00 in0.0 mm 0.00 in0.0 mm
01:05 AM 59.6°F15.3°C 42.0°F5.6°C 52% 10.1 mph WSW16.3 kmh WSW 13.6 mph21.9 kmh 30.27 in1025.1 mb 0.00 in0.0 mm 0.00 in0.0 mm 0.00 in0.0 mm
01:10 AM 59.4°F15.2°C 41.8°F5.4°C 52% 9.6 mph WSW15.4 kmh WSW 13.4 mph21.6 kmh 30.27 in1025.1 mb 0.00 in0.0 mm 0.00 in0.0 mm 0.00 in0.0 mm
01:15 AM 59.4°F15.2°C 41.7°F5.4°C 52% 9.8 mph WSW15.8 kmh WSW 13.0 mph20.9 kmh 30.27 in1025.1 mb 0.00 in0.0 mm 0.00 in0.0 mm 0.00 in0.0 mm
01:20 AM 59.2°F15.1°C 41.8°F5.4°C 52% 10.3 mph WSW16.6 kmh WSW 14.5 mph23.3 kmh 30.27 in1025.1 mb 0.00 in0.0 mm 0.00 in0.0 mm 0.00 in0.0 mm
01:25 AM 59.0°F15.0°C 41.9°F5.5°C 53% 10.2 mph WSW16.4 kmh WSW 11.2 mph18.0 kmh 30.27 in1025.1 mb 0.00 in0.0 mm 0.00 in0.0 mm 0.00 in0.0 mm
01:30 AM 58.8°F14.9°C 41.7°F5.4°C 53% 10.1 mph WSW16.3 kmh WSW 11.2 mph18.0 kmh 30.27 in1025.1 mb 0.00 in0.0 mm 0.00 in0.0 mm 0.00 in0.0 mm
01:35 AM 58.6°F14.8°C 41.9°F5.5°C 54% 9.6 mph WSW15.4 kmh WSW 11.2 mph18.0 kmh 30.27 in1025.1 mb 0.00 in0.0 mm 0.00 in0.0 mm 0.00 in0.0 mm
01:40 AM 58.5°F14.7°C 41.9°F5.5°C 54% 8.5 mph WSW13.7 kmh WSW 10.7 mph17.2 kmh 30.27 in1025.1 mb 0.00 in0.0 mm 0.00 in0.0 mm 0.00 in0.0 mm
01:45 AM 58.6°F14.8°C 42.0°F5.6°C 54% 8.3 mph WSW13.4 kmh WSW 10.1 mph16.3 kmh 30.27 in1025.1 mb 0.00 in0.0 mm 0.00 in0.0 mm 0.00 in0.0 mm
01:50 AM 58.6°F14.8°C 42.0°F5.6°C 54% 7.6 mph WSW12.2 kmh WSW 11.9 mph19.2 kmh 30.27 in1025.1 mb 0.00 in0.0 mm 0.00 in0.0 mm 0.00 in0.0 mm
01:55 AM 58.7°F14.8°C 42.1°F5.6°C 54% 7.6 mph WSW12.2 kmh WSW 12.5 mph20.1 kmh 30.28 in1025.4 mb 0.00 in0.0 mm 0.00 in0.0 mm 0.00 in0.0 mm
02:00 AM 58.9°F14.9°C 42.3°F5.7°C 54% 7.6 mph WSW12.2 kmh WSW 13.4 mph21.6 kmh 30.28 in1025.4 mb 0.00 in0.0 mm 0.00 in0.0 mm 0.00 in0.0 mm
02:05 AM 59.2°F15.1°C 42.5°F5.8°C 54% 7.8 mph WSW12.6 kmh WSW 13.0 mph20.9 kmh 30.28 in1025.4 mb 0.00 in0.0 mm 0.00 in0.0 mm 0.00 in0.0 mm
02:10 AM 59.2°F15.1°C 42.5°F5.8°C 54% 8.5 mph WSW13.7 kmh WSW 16.3 mph26.2 kmh 30.28 in1025.4 mb 0.00 in0.0 mm 0.00 in0.0 mm 0.00 in0.0 mm
02:15 AM 59.2°F15.1°C 42.5°F5.8°C 54% 8.8 mph WSW14.2 kmh WSW 13.0 mph20.9 kmh 30.28 in1025.4 mb 0.00 in0.0 mm 0.00 in0.0 mm 0.00 in0.0 mm
02:20 AM 59.2°F15.1°C 42.5°F5.8°C 54% 9.6 mph SW15.4 kmh SW 14.1 mph22.7 kmh 30.28 in1025.4 mb 0.00 in0.0 mm 0.00 in0.0 mm 0.00 in0.0 mm
02:25 AM 59.2°F15.1°C 42.5°F5.8°C 54% 9.6 mph WSW15.4 kmh WSW 11.2 mph18.0 kmh 30.29 in1025.7 mb 0.00 in0.0 mm 0.00 in0.0 mm 0.00 in0.0 mm
02:30 AM 58.9°F14.9°C 42.5°F5.8°C 55% 9.6 mph WSW15.4 kmh WSW 9.6 mph15.4 kmh 30.29 in1025.7 mb 0.00 in0.0 mm 0.00 in0.0 mm 0.00 in0.0 mm
02:35 AM 58.6°F14.8°C 42.5°F5.8°C 55% 8.9 mph WSW14.3 kmh WSW 11.2 mph18.0 kmh 30.29 in1025.7 mb 0.00 in0.0 mm 0.00 in0.0 mm 0.00 in0.0 mm
02:45 AM 58.2°F14.6°C 42.6°F5.9°C 56% 7.4 mph WSW11.9 kmh WSW 9.6 mph15.4 kmh 30.29 in1025.7 mb 0.00 in0.0 mm 0.00 in0.0 mm 0.00 in0.0 mm
02:50 AM 57.9°F14.4°C 42.3°F5.7°C 56% 8.5 mph WSW13.7 kmh WSW 8.7 mph14.0 kmh 30.29 in1025.7 mb 0.00 in0.0 mm 0.00 in0.0 mm 0.00 in0.0 mm
02:55 AM 57.9°F14.4°C 42.7°F5.9°C 57% 7.9 mph WSW12.7 kmh WSW 8.5 mph13.7 kmh 30.30 in1026.1 mb 0.00 in0.0 mm 0.00 in0.0 mm 0.00 in0.0 mm
03:00 AM 57.6°F14.2°C 42.5°F5.8°C 57% 6.3 mph WSW10.1 kmh WSW 7.6 mph12.2 kmh 30.30 in1026.1 mb 0.00 in0.0 mm 0.00 in0.0 mm 0.00 in0.0 mm
03:05 AM 57.4°F14.1°C 42.6°F5.9°C 58% 6.0 mph WSW9.7 kmh WSW 6.5 mph10.5 kmh 30.30 in1026.1 mb 0.00 in0.0 mm 0.00 in0.0 mm 0.00 in0.0 mm
03:10 AM 57.1°F13.9°C 42.4°F5.8°C 58% 5.1 mph WNW8.2 kmh WNW 6.3 mph10.1 kmh 30.30 in1026.1 mb 0.00 in0.0 mm 0.00 in0.0 mm 0.00 in0.0 mm
03:15 AM 56.9°F13.8°C 42.5°F5.8°C 59% 5.0 mph W8.0 kmh W 6.3 mph10.1 kmh 30.30 in1026.1 mb 0.00 in0.0 mm 0.00 in0.0 mm 0.00 in0.0 mm
03:20 AM 56.7°F13.7°C 42.6°F5.9°C 59% 4.7 mph W7.6 kmh W 6.3 mph10.1 kmh 30.30 in1026.1 mb 0.00 in0.0 mm 0.00 in0.0 mm 0.00 in0.0 mm
03:25 AM 56.7°F13.7°C 42.5°F5.8°C 59% 4.6 mph WSW7.4 kmh WSW 6.9 mph11.1 kmh 30.29 in1025.7 mb 0.00 in0.0 mm 0.00 in0.0 mm 0.00 in0.0 mm
03:30 AM 56.5°F13.6°C 42.6°F5.9°C 60% 4.3 mph WSW6.9 kmh WSW 11.4 mph18.3 kmh 30.29 in1025.7 mb 0.00 in0.0 mm 0.00 in0.0 mm 0.00 in0.0 mm
03:35 AM 56.5°F13.6°C 42.8°F6.0°C 60% 4.8 mph WSW7.7 kmh WSW 11.4 mph18.3 kmh 30.29 in1025.7 mb 0.00 in0.0 mm 0.00 in0.0 mm 0.00 in0.0 mm
03:40 AM 56.5°F13.6°C 42.8°F6.0°C 60% 6.3 mph WSW10.1 kmh WSW 17.4 mph28.0 kmh 30.30 in1026.1 mb 0.00 in0.0 mm 0.00 in0.0 mm 0.00 in0.0 mm
03:45 AM 56.5°F13.6°C 42.8°F6.0°C 60% 6.9 mph W11.1 kmh W 15.2 mph24.5 kmh 30.30 in1026.1 mb 0.00 in0.0 mm 0.00 in0.0 mm 0.00 in0.0 mm
03:50 AM 56.7°F13.7°C 43.0°F6.1°C 60% 8.7 mph W14.0 kmh W 18.6 mph29.9 kmh 30.30 in1026.1 mb 0.00 in0.0 mm 0.00 in0.0 mm 0.00 in0.0 mm
03:55 AM 57.0°F13.9°C 43.2°F6.2°C 60% 9.0 mph W14.5 kmh W 15.9 mph25.6 kmh 30.30 in1026.1 mb 0.00 in0.0 mm 0.00 in0.0 mm 0.00 in0.0 mm
04:00 AM 57.0°F13.9°C 43.2°F6.2°C 60% 9.6 mph W15.4 kmh W 19.0 mph30.6 kmh 30.30 in1026.1 mb 0.00 in0.0 mm 0.00 in0.0 mm 0.00 in0.0 mm
04:05 AM 57.0°F13.9°C 43.0°F6.1°C 59% 10.0 mph W16.1 kmh W 20.4 mph32.8 kmh 30.30 in1026.1 mb 0.00 in0.0 mm 0.00 in0.0 mm 0.00 in0.0 mm
04:10 AM 57.0°F13.9°C 42.8°F6.0°C 59% 11.2 mph W18.0 kmh W 25.7 mph41.4 kmh 30.29 in1025.7 mb 0.00 in0.0 mm 0.00 in0.0 mm 0.00 in0.0 mm
04:15 AM 57.1°F13.9°C 43.0°F6.1°C 59% 11.4 mph W18.3 kmh W 15.7 mph25.3 kmh 30.29 in1025.7 mb 0.00 in0.0 mm 0.00 in0.0 mm 0.00 in0.0 mm
04:20 AM 57.2°F14.0°C 43.0°F6.1°C 59% 11.9 mph W19.2 kmh W 14.1 mph22.7 kmh 30.29 in1025.7 mb 0.00 in0.0 mm 0.00 in0.0 mm 0.00 in0.0 mm
04:25 AM 57.1°F13.9°C 42.9°F6.1°C 59% 10.8 mph W17.4 kmh W 12.5 mph20.1 kmh 30.30 in1026.1 mb 0.00 in0.0 mm 0.00 in0.0 mm 0.00 in0.0 mm
04:30 AM 57.0°F13.9°C 42.8°F6.0°C 59% 8.1 mph W13.0 kmh W 12.3 mph19.8 kmh 30.30 in1026.1 mb 0.00 in0.0 mm 0.00 in0.0 mm 0.00 in0.0 mm
04:35 AM 56.9°F13.8°C 42.7°F5.9°C 59% 7.9 mph W12.7 kmh W 11.9 mph19.2 kmh 30.30 in1026.1 mb 0.00 in0.0 mm 0.00 in0.0 mm 0.00 in0.0 mm
04:40 AM 56.7°F13.7°C 42.6°F5.9°C 59% 7.4 mph WSW11.9 kmh WSW 9.2 mph14.8 kmh 30.30 in1026.1 mb 0.00 in0.0 mm 0.00 in0.0 mm 0.00 in0.0 mm
04:45 AM 56.4°F13.6°C 42.7°F5.9°C 60% 7.1 mph WSW11.4 kmh WSW 11.2 mph18.0 kmh 30.31 in1026.4 mb 0.00 in0.0 mm 0.00 in0.0 mm 0.00 in0.0 mm
04:50 AM 56.1°F13.4°C 42.4°F5.8°C 60% 6.3 mph WSW10.1 kmh WSW 12.5 mph20.1 kmh 30.31 in1026.4 mb 0.00 in0.0 mm 0.00 in0.0 mm 0.00 in0.0 mm
04:55 AM 56.0°F13.3°C 42.3°F5.7°C 60% 6.1 mph WSW9.8 kmh WSW 6.5 mph10.5 kmh 30.31 in1026.4 mb 0.00 in0.0 mm 0.00 in0.0 mm 0.00 in0.0 mm
05:00 AM 55.9°F13.3°C 42.3°F5.7°C 60% 5.8 mph WSW9.3 kmh WSW 6.3 mph10.1 kmh 30.31 in1026.4 mb 0.00 in0.0 mm 0.00 in0.0 mm 0.00 in0.0 mm
05:05 AM 55.9°F13.3°C 42.3°F5.7°C 60% 5.5 mph SW8.9 kmh SW 7.6 mph12.2 kmh 30.31 in1026.4 mb 0.00 in0.0 mm 0.00 in0.0 mm 0.00 in0.0 mm
05:10 AM 56.0°F13.3°C 42.3°F5.7°C 60% 4.7 mph ESE7.6 kmh ESE 6.5 mph10.5 kmh 30.32 in1026.8 mb 0.00 in0.0 mm 0.00 in0.0 mm 0.00 in0.0 mm
05:15 AM 56.1°F13.4°C 41.9°F5.5°C 59% 4.7 mph SE7.6 kmh SE 12.3 mph19.8 kmh 30.32 in1026.8 mb 0.00 in0.0 mm 0.00 in0.0 mm 0.00 in0.0 mm
05:20 AM 56.1°F13.4°C 41.5°F5.3°C 58% 4.7 mph SW7.6 kmh SW 14.8 mph23.8 kmh 30.32 in1026.8 mb 0.00 in0.0 mm 0.00 in0.0 mm 0.00 in0.0 mm
05:25 AM 56.1°F13.4°C 41.1°F5.1°C 57% 6.7 mph WSW10.8 kmh WSW 26.4 mph42.5 kmh 30.32 in1026.8 mb 0.00 in0.0 mm 0.00 in0.0 mm 0.00 in0.0 mm
05:30 AM 56.1°F13.4°C 40.8°F4.9°C 56% 12.3 mph WSW19.8 kmh WSW 24.2 mph38.9 kmh 30.32 in1026.8 mb 0.00 in0.0 mm 0.00 in0.0 mm 0.00 in0.0 mm
05:35 AM 56.1°F13.4°C 40.6°F4.8°C 56% 13.7 mph WSW22.0 kmh WSW 29.1 mph46.8 kmh 30.32 in1026.8 mb 0.00 in0.0 mm 0.00 in0.0 mm 0.00 in0.0 mm
05:40 AM 56.0°F13.3°C 40.5°F4.7°C 56% 17.4 mph W28.0 kmh W 23.5 mph37.8 kmh 30.31 in1026.4 mb 0.00 in0.0 mm 0.00 in0.0 mm 0.00 in0.0 mm
05:45 AM 55.7°F13.2°C 40.7°F4.8°C 57% 17.4 mph W28.0 kmh W 29.1 mph46.8 kmh 30.30 in1026.1 mb 0.00 in0.0 mm 0.00 in0.0 mm 0.00 in0.0 mm
05:50 AM 55.6°F13.1°C 40.2°F4.6°C 56% 17.4 mph WSW28.0 kmh WSW 27.3 mph43.9 kmh 30.30 in1026.1 mb 0.00 in0.0 mm 0.00 in0.0 mm 0.00 in0.0 mm
05:55 AM 55.5°F13.1°C 40.4°F4.7°C 57% 17.0 mph WSW27.4 kmh WSW 20.4 mph32.8 kmh 30.31 in1026.4 mb 0.00 in0.0 mm 0.00 in0.0 mm 0.00 in0.0 mm
06:00 AM 55.2°F12.9°C 40.3°F4.6°C 57% 15.9 mph WSW25.6 kmh WSW 19.7 mph31.7 kmh 30.31 in1026.4 mb 0.00 in0.0 mm 0.00 in0.0 mm 0.00 in0.0 mm
06:05 AM 55.0°F12.8°C 40.5°F4.7°C 58% 15.5 mph WSW24.9 kmh WSW 19.7 mph31.7 kmh 30.31 in1026.4 mb 0.00 in0.0 mm 0.00 in0.0 mm 0.00 in0.0 mm
06:10 AM 54.7°F12.6°C 40.2°F4.6°C 58% 14.5 mph WSW23.3 kmh WSW 20.1 mph32.3 kmh 30.31 in1026.4 mb 0.00 in0.0 mm 0.00 in0.0 mm 0.00 in0.0 mm
06:15 AM 54.5°F12.5°C 40.1°F4.5°C 58% 14.6 mph WSW23.5 kmh WSW 20.1 mph32.3 kmh 30.31 in1026.4 mb 0.00 in0.0 mm 0.00 in0.0 mm 0.00 in0.0 mm
06:20 AM 54.3°F12.4°C 39.9°F4.4°C 58% 14.8 mph WSW23.8 kmh WSW 20.8 mph33.5 kmh 30.31 in1026.4 mb 0.00 in0.0 mm 0.00 in0.0 mm 0.00 in0.0 mm
06:25 AM 54.1°F12.3°C 39.7°F4.3°C 58% 14.9 mph WSW24.0 kmh WSW 20.8 mph33.5 kmh 30.31 in1026.4 mb 0.00 in0.0 mm 0.00 in0.0 mm 0.00 in0.0 mm
06:30 AM 54.1°F12.3°C 39.7°F4.3°C 58% 15.2 mph WSW24.5 kmh WSW 15.2 mph24.5 kmh 30.31 in1026.4 mb 0.00 in0.0 mm 0.00 in0.0 mm 0.00 in0.0 mm
06:35 AM 54.1°F12.3°C 39.7°F4.3°C 58% 13.4 mph WSW21.6 kmh WSW 15.2 mph24.5 kmh 30.31 in1026.4 mb 0.00 in0.0 mm 0.00 in0.0 mm 0.00 in0.0 mm
06:40 AM 54.0°F12.2°C 40.0°F4.4°C 59% 8.5 mph SW13.7 kmh SW 8.5 mph13.7 kmh 30.32 in1026.8 mb 0.00 in0.0 mm 0.00 in0.0 mm 0.00 in0.0 mm
06:45 AM 54.0°F12.2°C 40.0°F4.4°C 59% 7.1 mph SW11.4 kmh SW 8.5 mph13.7 kmh 30.33 in1027.1 mb 0.00 in0.0 mm 0.00 in0.0 mm 0.00 in0.0 mm
06:50 AM 54.0°F12.2°C 40.0°F4.4°C 59% 3.1 mph SSE5.0 kmh SSE 8.1 mph13.0 kmh 30.33 in1027.1 mb 0.00 in0.0 mm 0.00 in0.0 mm 0.00 in0.0 mm
06:55 AM 54.1°F12.3°C 39.7°F4.3°C 58% 4.0 mph S6.4 kmh S 21.5 mph34.6 kmh 30.34 in1027.4 mb 0.00 in0.0 mm 0.00 in0.0 mm 0.00 in0.0 mm
07:00 AM 54.1°F12.3°C 39.7°F4.3°C 58% 6.3 mph WSW10.1 kmh WSW 23.0 mph37.0 kmh 30.34 in1027.4 mb 0.00 in0.0 mm 0.00 in0.0 mm 0.00 in0.0 mm
07:05 AM 54.3°F12.4°C 39.4°F4.1°C 57% 8.5 mph WSW13.7 kmh WSW 24.8 mph39.9 kmh 30.34 in1027.4 mb 0.00 in0.0 mm 0.00 in0.0 mm 0.00 in0.0 mm
07:10 AM 54.2°F12.3°C 39.3°F4.1°C 57% 14.8 mph WSW23.8 kmh WSW 19.0 mph30.6 kmh 30.33 in1027.1 mb 0.00 in0.0 mm 0.00 in0.0 mm 0.00 in0.0 mm
07:15 AM 54.1°F12.3°C 39.2°F4.0°C 57% 14.0 mph WSW22.5 kmh WSW 14.8 mph23.8 kmh 30.33 in1027.1 mb 0.00 in0.0 mm 0.00 in0.0 mm 0.00 in0.0 mm
07:20 AM 54.0°F12.2°C 39.3°F4.1°C 57% 11.9 mph WSW19.2 kmh WSW 11.9 mph19.2 kmh 30.33 in1027.1 mb 0.00 in0.0 mm 0.00 in0.0 mm 0.00 in0.0 mm
07:25 AM 54.0°F12.2°C 39.1°F3.9°C 57% 10.1 mph WSW16.3 kmh WSW 11.9 mph19.2 kmh 30.35 in1027.8 mb 0.00 in0.0 mm 0.00 in0.0 mm 0.00 in0.0 mm
07:30 AM 54.0°F12.2°C 39.1°F3.9°C 57% 5.1 mph SW8.2 kmh SW 9.6 mph15.4 kmh 30.35 in1027.8 mb 0.00 in0.0 mm 0.00 in0.0 mm 0.00 in0.0 mm
07:35 AM 53.8°F12.1°C 38.9°F3.8°C 57% 5.6 mph SW9.0 kmh SW 11.9 mph19.2 kmh 30.35 in1027.8 mb 0.00 in0.0 mm 0.00 in0.0 mm 0.00 in0.0 mm
07:40 AM 53.8°F12.1°C 38.9°F3.8°C 57% 6.9 mph SW11.1 kmh SW 10.3 mph16.6 kmh 30.35 in1027.8 mb 0.00 in0.0 mm 0.00 in0.0 mm 0.00 in0.0 mm
07:45 AM 53.8°F12.1°C 38.9°F3.8°C 57% 6.9 mph WSW11.1 kmh WSW 10.7 mph17.2 kmh 30.35 in1027.8 mb 0.00 in0.0 mm 0.00 in0.0 mm 0.00 in0.0 mm
07:50 AM 53.8°F12.1°C 38.9°F3.8°C 57% 6.9 mph WSW11.1 kmh WSW 11.2 mph18.0 kmh 30.35 in1027.8 mb 0.00 in0.0 mm 0.00 in0.0 mm 0.00 in0.0 mm
07:55 AM 53.8°F12.1°C 38.9°F3.8°C 57% 7.2 mph W11.6 kmh W 13.0 mph20.9 kmh 30.36 in1028.1 mb 0.00 in0.0 mm 0.00 in0.0 mm 0.00 in0.0 mm
08:00 AM 53.6°F12.0°C 38.8°F3.8°C 57% 8.1 mph W13.0 kmh W 14.5 mph23.3 kmh 30.36 in1028.1 mb 0.00 in0.0 mm 0.00 in0.0 mm 0.00 in0.0 mm
08:05 AM 53.4°F11.9°C 38.6°F3.7°C 57% 8.5 mph W13.7 kmh W 11.9 mph19.2 kmh 30.36 in1028.1 mb 0.00 in0.0 mm 0.00 in0.0 mm 0.00 in0.0 mm
08:10 AM 53.4°F11.9°C 38.6°F3.7°C 57% 9.6 mph W15.4 kmh W 10.7 mph17.2 kmh 30.36 in1028.1 mb 0.00 in0.0 mm 0.00 in0.0 mm 0.00 in0.0 mm
08:15 AM 53.4°F11.9°C 38.8°F3.8°C 58% 8.3 mph W13.4 kmh W 9.6 mph15.4 kmh 30.37 in1028.4 mb 0.00 in0.0 mm 0.00 in0.0 mm 0.00 in0.0 mm
08:20 AM 53.1°F11.7°C 38.9°F3.8°C 58% 4.7 mph W7.6 kmh W 7.6 mph12.2 kmh 30.37 in1028.4 mb 0.00 in0.0 mm 0.00 in0.0 mm 0.00 in0.0 mm
08:25 AM 53.0°F11.7°C 39.2°F4.0°C 59% 5.0 mph WSW8.0 kmh WSW 17.0 mph27.4 kmh 30.37 in1028.4 mb 0.00 in0.0 mm 0.00 in0.0 mm 0.00 in0.0 mm
08:30 AM 52.9°F11.6°C 39.4°F4.1°C 60% 5.8 mph WSW9.3 kmh WSW 16.8 mph27.0 kmh 30.37 in1028.4 mb 0.00 in0.0 mm 0.00 in0.0 mm 0.00 in0.0 mm
08:35 AM 52.9°F11.6°C 39.7°F4.3°C 61% 7.2 mph WSW11.6 kmh WSW 17.0 mph27.4 kmh 30.37 in1028.4 mb 0.00 in0.0 mm 0.00 in0.0 mm 0.00 in0.0 mm
08:40 AM 52.7°F11.5°C 39.8°F4.3°C 61% 11.2 mph WSW18.0 kmh WSW 15.7 mph25.3 kmh 30.36 in1028.1 mb 0.00 in0.0 mm 0.00 in0.0 mm 0.00 in0.0 mm
08:45 AM 52.7°F11.5°C 40.1°F4.5°C 62% 10.7 mph WSW17.2 kmh WSW 13.4 mph21.6 kmh 30.36 in1028.1 mb 0.00 in0.0 mm 0.00 in0.0 mm 0.00 in0.0 mm
08:50 AM 52.8°F11.6°C 39.8°F4.3°C 61% 9.2 mph WSW14.8 kmh WSW 9.2 mph14.8 kmh 30.36 in1028.1 mb 0.00 in0.0 mm 0.00 in0.0 mm 0.00 in0.0 mm
08:55 AM 53.0°F11.7°C 39.9°F4.4°C 61% 7.7 mph WSW12.4 kmh WSW 9.2 mph14.8 kmh 30.38 in1028.8 mb 0.00 in0.0 mm 0.00 in0.0 mm 0.00 in0.0 mm
09:00 AM 53.3°F11.8°C 40.2°F4.6°C 61% 3.6 mph SSW5.8 kmh SSW 11.2 mph18.0 kmh 30.38 in1028.8 mb 0.00 in0.0 mm 0.00 in0.0 mm 0.00 in0.0 mm
09:05 AM 53.6°F12.0°C 40.0°F4.4°C 60% 4.8 mph SW7.7 kmh SW 19.2 mph30.9 kmh 30.38 in1028.8 mb 0.00 in0.0 mm 0.00 in0.0 mm 0.00 in0.0 mm
09:10 AM 53.8°F12.1°C 40.2°F4.6°C 60% 8.1 mph WSW13.0 kmh WSW 18.1 mph29.1 kmh 30.38 in1028.8 mb 0.00 in0.0 mm 0.00 in0.0 mm 0.00 in0.0 mm
09:15 AM 53.8°F12.1°C 39.9°F4.4°C 59% 9.2 mph WSW14.8 kmh WSW 21.9 mph35.2 kmh 30.38 in1028.8 mb 0.00 in0.0 mm 0.00 in0.0 mm 0.00 in0.0 mm
09:20 AM 53.9°F12.2°C 39.9°F4.4°C 59% 12.5 mph WSW20.1 kmh WSW 21.9 mph35.2 kmh 30.38 in1028.8 mb 0.00 in0.0 mm 0.00 in0.0 mm 0.00 in0.0 mm
09:25 AM 54.0°F12.2°C 40.0°F4.4°C 59% 13.5 mph WSW21.7 kmh WSW 24.2 mph38.9 kmh 30.38 in1028.8 mb 0.00 in0.0 mm 0.00 in0.0 mm 0.00 in0.0 mm
09:30 AM 54.1°F12.3°C 39.8°F4.3°C 58% 16.3 mph WSW26.2 kmh WSW 19.7 mph31.7 kmh 30.38 in1028.8 mb 0.00 in0.0 mm 0.00 in0.0 mm 0.00 in0.0 mm
09:35 AM 54.3°F12.4°C 39.8°F4.3°C 58% 15.4 mph WSW24.8 kmh WSW 17.9 mph28.8 kmh 30.38 in1028.8 mb 0.00 in0.0 mm 0.00 in0.0 mm 0.00 in0.0 mm
09:40 AM 54.7°F12.6°C 39.6°F4.2°C 56% 13.0 mph W20.9 kmh W 18.6 mph29.9 kmh 30.38 in1028.8 mb 0.00 in0.0 mm 0.00 in0.0 mm 0.00 in0.0 mm
09:45 AM 55.2°F12.9°C 39.5°F4.2°C 55% 12.1 mph W19.5 kmh W 13.6 mph21.9 kmh 30.38 in1028.8 mb 0.00 in0.0 mm 0.00 in0.0 mm 0.00 in0.0 mm
09:50 AM 55.7°F13.2°C 39.7°F4.3°C 55% 9.6 mph W15.4 kmh W 16.8 mph27.0 kmh 30.38 in1028.8 mb 0.00 in0.0 mm 0.00 in0.0 mm 0.00 in0.0 mm
09:55 AM 56.1°F13.4°C 39.7°F4.3°C 54% 8.8 mph W14.2 kmh W 18.6 mph29.9 kmh 30.39 in1029.1 mb 0.00 in0.0 mm 0.00 in0.0 mm 0.00 in0.0 mm
10:00 AM 56.6°F13.7°C 39.6°F4.2°C 53% 6.5 mph W10.5 kmh W 15.2 mph24.5 kmh 30.39 in1029.1 mb 0.00 in0.0 mm 0.00 in0.0 mm 0.00 in0.0 mm
10:05 AM 56.8°F13.8°C 39.4°F4.1°C 52% 6.8 mph W10.9 kmh W 14.1 mph22.7 kmh 30.39 in1029.1 mb 0.00 in0.0 mm 0.00 in0.0 mm 0.00 in0.0 mm
10:10 AM 57.0°F13.9°C 39.5°F4.2°C 52% 7.6 mph W12.2 kmh W 19.2 mph30.9 kmh 30.40 in1029.5 mb 0.00 in0.0 mm 0.00 in0.0 mm 0.00 in0.0 mm
10:15 AM 57.0°F13.9°C 39.6°F4.2°C 52% 8.7 mph W14.0 kmh W 19.7 mph31.7 kmh 30.40 in1029.5 mb 0.00 in0.0 mm 0.00 in0.0 mm 0.00 in0.0 mm
10:20 AM 57.1°F13.9°C 39.7°F4.3°C 52% 11.9 mph W19.2 kmh W 18.1 mph29.1 kmh 30.40 in1029.5 mb 0.00 in0.0 mm 0.00 in0.0 mm 0.00 in0.0 mm
10:25 AM 57.3°F14.1°C 39.9°F4.4°C 52% 11.4 mph W18.3 kmh W 18.1 mph29.1 kmh 30.40 in1029.5 mb 0.00 in0.0 mm 0.00 in0.0 mm 0.00 in0.0 mm
10:30 AM 57.6°F14.2°C 39.7°F4.3°C 51% 10.3 mph W16.6 kmh W 24.6 mph39.6 kmh 30.40 in1029.5 mb 0.00 in0.0 mm 0.00 in0.0 mm 0.00 in0.0 mm
10:35 AM 57.7°F14.3°C 39.6°F4.2°C 51% 11.6 mph W18.7 kmh W 28.6 mph46.0 kmh 30.40 in1029.5 mb 0.00 in0.0 mm 0.00 in0.0 mm 0.00 in0.0 mm
10:40 AM 57.7°F14.3°C 39.2°F4.0°C 50% 15.2 mph W24.5 kmh W 28.0 mph45.1 kmh 30.39 in1029.1 mb 0.00 in0.0 mm 0.00 in0.0 mm 0.00 in0.0 mm
10:45 AM 57.7°F14.3°C 39.2°F4.0°C 50% 15.9 mph W25.6 kmh W 27.5 mph44.3 kmh 30.39 in1029.1 mb 0.00 in0.0 mm 0.00 in0.0 mm 0.00 in0.0 mm
10:50 AM 57.7°F14.3°C 39.2°F4.0°C 50% 17.9 mph W28.8 kmh W 28.6 mph46.0 kmh 30.39 in1029.1 mb 0.00 in0.0 mm 0.00 in0.0 mm 0.00 in0.0 mm
10:55 AM 57.8°F14.3°C 39.1°F3.9°C 50% 17.6 mph W28.3 kmh W 21.5 mph34.6 kmh 30.39 in1029.1 mb 0.00 in0.0 mm 0.00 in0.0 mm 0.00 in0.0 mm
11:00 AM 58.1°F14.5°C 39.1°F3.9°C 49% 16.8 mph W27.0 kmh W 23.5 mph37.8 kmh 30.39 in1029.1 mb 0.00 in0.0 mm 0.00 in0.0 mm 0.00 in0.0 mm
11:05 AM 58.4°F14.7°C 39.3°F4.1°C 49% 16.1 mph W25.9 kmh W 23.5 mph37.8 kmh 30.39 in1029.1 mb 0.00 in0.0 mm 0.00 in0.0 mm 0.00 in0.0 mm
11:10 AM 58.5°F14.7°C 38.9°F3.8°C 48% 14.1 mph WSW22.7 kmh WSW 29.8 mph48.0 kmh 30.39 in1029.1 mb 0.00 in0.0 mm 0.00 in0.0 mm 0.00 in0.0 mm
11:15 AM 58.6°F14.8°C 39.0°F3.9°C 48% 13.9 mph W22.4 kmh W 23.7 mph38.1 kmh 30.39 in1029.1 mb 0.00 in0.0 mm 0.00 in0.0 mm 0.00 in0.0 mm
11:20 AM 58.8°F14.9°C 38.7°F3.7°C 47% 13.4 mph W21.6 kmh W 23.7 mph38.1 kmh 30.39 in1029.1 mb 0.00 in0.0 mm 0.00 in0.0 mm 0.00 in0.0 mm
11:25 AM 59.1°F15.1°C 38.3°F3.5°C 46% 14.1 mph W22.7 kmh W 27.3 mph43.9 kmh 30.39 in1029.1 mb 0.00 in0.0 mm 0.00 in0.0 mm 0.00 in0.0 mm
11:30 AM 59.2°F15.1°C 38.4°F3.6°C 46% 15.9 mph W25.6 kmh W 22.6 mph36.4 kmh 30.38 in1028.8 mb 0.00 in0.0 mm 0.00 in0.0 mm 0.00 in0.0 mm
11:35 AM 59.3°F15.2°C 38.4°F3.6°C 46% 15.5 mph W24.9 kmh W 26.2 mph42.2 kmh 30.38 in1028.8 mb 0.00 in0.0 mm 0.00 in0.0 mm 0.00 in0.0 mm
11:40 AM 59.5°F15.3°C 38.6°F3.7°C 46% 14.5 mph W23.3 kmh W 27.3 mph43.9 kmh 30.39 in1029.1 mb 0.00 in0.0 mm 0.00 in0.0 mm 0.00 in0.0 mm
11:45 AM 59.6°F15.3°C 38.4°F3.6°C 45% 14.7 mph W23.7 kmh W 23.5 mph37.8 kmh 30.39 in1029.1 mb 0.00 in0.0 mm 0.00 in0.0 mm 0.00 in0.0 mm
11:50 AM 59.7°F15.4°C 38.1°F3.4°C 45% 15.2 mph W24.5 kmh W 28.6 mph46.0 kmh 30.39 in1029.1 mb 0.00 in0.0 mm 0.00 in0.0 mm 0.00 in0.0 mm
11:55 AM 60.1°F15.6°C 37.9°F3.3°C 44% 15.6 mph W25.1 kmh W 26.2 mph42.2 kmh 30.38 in1028.8 mb 0.00 in0.0 mm 0.00 in0.0 mm 0.00 in0.0 mm
12:00 PM 60.3°F15.7°C 37.7°F3.2°C 43% 16.8 mph W27.0 kmh W 27.3 mph43.9 kmh 30.38 in1028.8 mb 0.00 in0.0 mm 0.00 in0.0 mm 0.00 in0.0 mm
12:05 PM 60.3°F15.7°C 37.7°F3.2°C 43% 16.7 mph W26.9 kmh W 29.8 mph48.0 kmh 30.38 in1028.8 mb 0.00 in0.0 mm 0.00 in0.0 mm 0.00 in0.0 mm
12:10 PM 60.4°F15.8°C 37.5°F3.1°C 42% 16.3 mph W26.2 kmh W 24.6 mph39.6 kmh 30.38 in1028.8 mb 0.00 in0.0 mm 0.00 in0.0 mm 0.00 in0.0 mm
12:15 PM 60.5°F15.8°C 37.5°F3.1°C 42% 16.2 mph W26.1 kmh W 26.2 mph42.2 kmh 30.38 in1028.8 mb 0.00 in0.0 mm 0.00 in0.0 mm 0.00 in0.0 mm
12:20 PM 60.5°F15.8°C 37.7°F3.2°C 43% 15.9 mph W25.6 kmh W 25.3 mph40.7 kmh 30.38 in1028.8 mb 0.00 in0.0 mm 0.00 in0.0 mm 0.00 in0.0 mm
12:25 PM 60.7°F15.9°C 37.9°F3.3°C 43% 15.7 mph W25.3 kmh W 21.9 mph35.2 kmh 30.38 in1028.8 mb 0.00 in0.0 mm 0.00 in0.0 mm 0.00 in0.0 mm
12:30 PM 60.9°F16.1°C 37.7°F3.2°C 42% 15.2 mph W24.5 kmh W 21.9 mph35.2 kmh 30.38 in1028.8 mb 0.00 in0.0 mm 0.00 in0.0 mm 0.00 in0.0 mm
12:35 PM 61.1°F16.2°C 37.9°F3.3°C 42% 14.7 mph W23.7 kmh W 20.1 mph32.3 kmh 30.38 in1028.8 mb 0.00 in0.0 mm 0.00 in0.0 mm 0.00 in0.0 mm
12:40 PM 61.3°F16.3°C 38.0°F3.3°C 42% 13.4 mph WNW21.6 kmh WNW 22.4 mph36.0 kmh 30.37 in1028.4 mb 0.00 in0.0 mm 0.00 in0.0 mm 0.00 in0.0 mm
12:45 PM 61.5°F16.4°C 38.2°F3.4°C 42% 13.1 mph WNW21.1 kmh WNW 19.7 mph31.7 kmh 30.37 in1028.4 mb 0.00 in0.0 mm 0.00 in0.0 mm 0.00 in0.0 mm
12:50 PM 61.8°F16.6°C 37.9°F3.3°C 41% 12.3 mph WNW19.8 kmh WNW 20.8 mph33.5 kmh 30.37 in1028.4 mb 0.00 in0.0 mm 0.00 in0.0 mm 0.00 in0.0 mm
12:55 PM 62.1°F16.7°C 37.5°F3.1°C 40% 11.8 mph WNW19.0 kmh WNW 17.9 mph28.8 kmh 30.37 in1028.4 mb 0.00 in0.0 mm 0.00 in0.0 mm 0.00 in0.0 mm
01:00 PM 62.4°F16.9°C 37.7°F3.2°C 40% 10.3 mph WNW16.6 kmh WNW 18.6 mph29.9 kmh 30.37 in1028.4 mb 0.00 in0.0 mm 0.00 in0.0 mm 0.00 in0.0 mm
01:05 PM 62.7°F17.1°C 37.4°F3.0°C 39% 10.4 mph WNW16.7 kmh WNW 16.8 mph27.0 kmh 30.37 in1028.4 mb 0.00 in0.0 mm 0.00 in0.0 mm 0.00 in0.0 mm
01:10 PM 63.0°F17.2°C 37.2°F2.9°C 38% 10.7 mph W17.2 kmh W 17.9 mph28.8 kmh 30.36 in1028.1 mb 0.00 in0.0 mm 0.00 in0.0 mm 0.00 in0.0 mm
01:15 PM 63.2°F17.3°C 36.9°F2.7°C 38% 10.6 mph W17.1 kmh W 15.7 mph25.3 kmh 30.36 in1028.1 mb 0.00 in0.0 mm 0.00 in0.0 mm 0.00 in0.0 mm
01:20 PM 63.4°F17.4°C 36.6°F2.6°C 37% 10.1 mph W16.3 kmh W 16.3 mph26.2 kmh 30.36 in1028.1 mb 0.00 in0.0 mm 0.00 in0.0 mm 0.00 in0.0 mm
01:25 PM 63.7°F17.6°C 36.2°F2.3°C 36% 9.7 mph W15.6 kmh W 13.0 mph20.9 kmh 30.36 in1028.1 mb 0.00 in0.0 mm 0.00 in0.0 mm 0.00 in0.0 mm
01:30 PM 63.9°F17.7°C 35.9°F2.2°C 35% 8.7 mph W14.0 kmh W 13.6 mph21.9 kmh 30.36 in1028.1 mb 0.00 in0.0 mm 0.00 in0.0 mm 0.00 in0.0 mm
01:35 PM 64.2°F17.9°C 35.6°F2.0°C 34% 8.7 mph W14.0 kmh W 8.7 mph14.0 kmh 30.36 in1028.1 mb 0.00 in0.0 mm 0.00 in0.0 mm 0.00 in0.0 mm
01:40 PM 64.2°F17.9°C 35.7°F2.1°C 35% 8.5 mph WNW13.7 kmh WNW 8.5 mph13.7 kmh 30.36 in1028.1 mb 0.00 in0.0 mm 0.00 in0.0 mm 0.00 in0.0 mm
01:45 PM 64.6°F18.1°C 35.8°F2.1°C 34% 7.1 mph WNW11.4 kmh WNW 8.7 mph14.0 kmh 30.35 in1027.8 mb 0.00 in0.0 mm 0.00 in0.0 mm 0.00 in0.0 mm
01:50 PM 65.0°F18.3°C 34.3°F1.3°C 32% 3.1 mph NW5.0 kmh NW 11.9 mph19.2 kmh 30.35 in1027.8 mb 0.00 in0.0 mm 0.00 in0.0 mm 0.00 in0.0 mm
01:55 PM 65.0°F18.3°C 32.2°F0.1°C 29% 3.5 mph NW5.6 kmh NW 5.8 mph9.3 kmh 30.34 in1027.4 mb 0.00 in0.0 mm 0.00 in0.0 mm 0.00 in0.0 mm
02:00 PM 65.4°F18.6°C 33.1°F0.6°C 30% 4.7 mph NW7.6 kmh NW 5.1 mph8.2 kmh 30.34 in1027.4 mb 0.00 in0.0 mm 0.00 in0.0 mm 0.00 in0.0 mm
02:05 PM 65.0°F18.3°C 32.4°F0.2°C 30% 4.3 mph NNW6.9 kmh NNW 8.5 mph13.7 kmh 30.34 in1027.4 mb 0.00 in0.0 mm 0.00 in0.0 mm 0.00 in0.0 mm
02:10 PM 64.4°F18.0°C 32.5°F0.3°C 30% 3.1 mph ENE5.0 kmh ENE 11.4 mph18.3 kmh 30.34 in1027.4 mb 0.00 in0.0 mm 0.00 in0.0 mm 0.00 in0.0 mm
02:15 PM 64.2°F17.9°C 32.8°F0.4°C 31% 3.7 mph ENE6.0 kmh ENE 6.9 mph11.1 kmh 30.34 in1027.4 mb 0.00 in0.0 mm 0.00 in0.0 mm 0.00 in0.0 mm
02:20 PM 64.0°F17.8°C 34.2°F1.2°C 33% 5.4 mph E8.7 kmh E 11.9 mph19.2 kmh 30.34 in1027.4 mb 0.00 in0.0 mm 0.00 in0.0 mm 0.00 in0.0 mm
02:25 PM 63.7°F17.6°C 35.2°F1.8°C 34% 6.0 mph E9.7 kmh E 13.4 mph21.6 kmh 30.34 in1027.4 mb 0.00 in0.0 mm 0.00 in0.0 mm 0.00 in0.0 mm
02:30 PM 63.2°F17.3°C 35.3°F1.8°C 35% 7.6 mph ENE12.2 kmh ENE 11.4 mph18.3 kmh 30.34 in1027.4 mb 0.00 in0.0 mm 0.00 in0.0 mm 0.00 in0.0 mm
02:35 PM 63.0°F17.2°C 34.9°F1.6°C 35% 7.6 mph ENE12.2 kmh ENE 12.5 mph20.1 kmh 30.34 in1027.4 mb 0.00 in0.0 mm 0.00 in0.0 mm 0.00 in0.0 mm
02:40 PM 62.8°F17.1°C 34.8°F1.6°C 35% 7.6 mph ENE12.2 kmh ENE 11.4 mph18.3 kmh 30.34 in1027.4 mb 0.00 in0.0 mm 0.00 in0.0 mm 0.00 in0.0 mm
02:45 PM 63.0°F17.2°C 35.3°F1.8°C 36% 7.8 mph ENE12.6 kmh ENE 12.5 mph20.1 kmh 30.34 in1027.4 mb 0.00 in0.0 mm 0.00 in0.0 mm 0.00 in0.0 mm
02:50 PM 62.8°F17.1°C 36.1°F2.3°C 37% 8.5 mph E13.7 kmh E 11.2 mph18.0 kmh 30.34 in1027.4 mb 0.00 in0.0 mm 0.00 in0.0 mm 0.00 in0.0 mm
02:55 PM 62.6°F17.0°C 36.3°F2.4°C 37% 8.2 mph E13.2 kmh E 13.6 mph21.9 kmh 30.34 in1027.4 mb 0.00 in0.0 mm 0.00 in0.0 mm 0.00 in0.0 mm
03:00 PM 62.8°F17.1°C 36.7°F2.6°C 38% 7.4 mph E11.9 kmh E 10.1 mph16.3 kmh 30.34 in1027.4 mb 0.00 in0.0 mm 0.00 in0.0 mm 0.00 in0.0 mm
03:05 PM 62.7°F17.1°C 36.7°F2.6°C 38% 7.4 mph E11.9 kmh E 13.4 mph21.6 kmh 30.34 in1027.4 mb 0.00 in0.0 mm 0.00 in0.0 mm 0.00 in0.0 mm
03:10 PM 62.7°F17.1°C 37.0°F2.8°C 38% 7.6 mph E12.2 kmh E 13.0 mph20.9 kmh 30.34 in1027.4 mb 0.00 in0.0 mm 0.00 in0.0 mm 0.00 in0.0 mm
03:15 PM 62.1°F16.7°C 36.7°F2.6°C 39% 7.6 mph E12.2 kmh E 12.3 mph19.8 kmh 30.34 in1027.4 mb 0.00 in0.0 mm 0.00 in0.0 mm 0.00 in0.0 mm
03:20 PM 61.9°F16.6°C 37.3°F2.9°C 40% 7.6 mph E12.2 kmh E 11.4 mph18.3 kmh 30.34 in1027.4 mb 0.00 in0.0 mm 0.00 in0.0 mm 0.00 in0.0 mm
03:25 PM 62.1°F16.7°C 37.3°F2.9°C 40% 7.3 mph E11.7 kmh E 10.3 mph16.6 kmh 30.34 in1027.4 mb 0.00 in0.0 mm 0.00 in0.0 mm 0.00 in0.0 mm
03:30 PM 62.0°F16.7°C 37.5°F3.1°C 40% 6.5 mph ESE10.5 kmh ESE 11.9 mph19.2 kmh 30.34 in1027.4 mb 0.00 in0.0 mm 0.00 in0.0 mm 0.00 in0.0 mm
03:35 PM 61.8°F16.6°C 38.0°F3.3°C 41% 6.5 mph E10.5 kmh E 9.2 mph14.8 kmh 30.34 in1027.4 mb 0.00 in0.0 mm 0.00 in0.0 mm 0.00 in0.0 mm
03:40 PM 61.6°F16.4°C 38.8°F3.8°C 43% 6.5 mph E10.5 kmh E 13.6 mph21.9 kmh 30.35 in1027.8 mb 0.00 in0.0 mm 0.00 in0.0 mm 0.00 in0.0 mm
03:45 PM 61.2°F16.2°C 38.9°F3.8°C 44% 7.0 mph E11.3 kmh E 13.0 mph20.9 kmh 30.35 in1027.8 mb 0.00 in0.0 mm 0.00 in0.0 mm 0.00 in0.0 mm
03:50 PM 61.0°F16.1°C 38.9°F3.8°C 44% 8.5 mph ESE13.7 kmh ESE 11.9 mph19.2 kmh 30.35 in1027.8 mb 0.00 in0.0 mm 0.00 in0.0 mm 0.00 in0.0 mm
03:55 PM 60.9°F16.1°C 39.2°F4.0°C 45% 8.3 mph ESE13.4 kmh ESE 10.1 mph16.3 kmh 30.35 in1027.8 mb 0.00 in0.0 mm 0.00 in0.0 mm 0.00 in0.0 mm
04:00 PM 60.7°F15.9°C 39.9°F4.4°C 46% 7.6 mph ESE12.2 kmh ESE 8.7 mph14.0 kmh 30.35 in1027.8 mb 0.00 in0.0 mm 0.00 in0.0 mm 0.00 in0.0 mm
04:05 PM 60.9°F16.1°C 39.8°F4.3°C 46% 7.3 mph ESE11.7 kmh ESE 10.1 mph16.3 kmh 30.35 in1027.8 mb 0.00 in0.0 mm 0.00 in0.0 mm 0.00 in0.0 mm
04:10 PM 60.8°F16.0°C 39.9°F4.4°C 46% 6.3 mph E10.1 kmh E 11.2 mph18.0 kmh 30.35 in1027.8 mb 0.00 in0.0 mm 0.00 in0.0 mm 0.00 in0.0 mm
04:15 PM 60.6°F15.9°C 40.8°F4.9°C 48% 6.6 mph E10.6 kmh E 11.2 mph18.0 kmh 30.35 in1027.8 mb 0.00 in0.0 mm 0.00 in0.0 mm 0.00 in0.0 mm
04:20 PM 60.6°F15.9°C 41.3°F5.2°C 49% 7.4 mph ESE11.9 kmh ESE 10.3 mph16.6 kmh 30.35 in1027.8 mb 0.00 in0.0 mm 0.00 in0.0 mm 0.00 in0.0 mm
04:25 PM 60.6°F15.9°C 41.6°F5.3°C 50% 7.1 mph ESE11.4 kmh ESE 12.3 mph19.8 kmh 30.35 in1027.8 mb 0.00 in0.0 mm 0.00 in0.0 mm 0.00 in0.0 mm
04:30 PM 60.2°F15.7°C 41.7°F5.4°C 50% 6.5 mph ESE10.5 kmh ESE 13.0 mph20.9 kmh 30.35 in1027.8 mb 0.00 in0.0 mm 0.00 in0.0 mm 0.00 in0.0 mm
04:35 PM 59.7°F15.4°C 41.7°F5.4°C 51% 6.9 mph E11.1 kmh E 11.4 mph18.3 kmh 30.35 in1027.8 mb 0.00 in0.0 mm 0.00 in0.0 mm 0.00 in0.0 mm
04:40 PM 59.7°F15.4°C 42.1°F5.6°C 52% 8.1 mph E13.0 kmh E 10.3 mph16.6 kmh 30.36 in1028.1 mb 0.00 in0.0 mm 0.00 in0.0 mm 0.00 in0.0 mm
04:45 PM 59.7°F15.4°C 42.5°F5.8°C 53% 7.6 mph E12.2 kmh E 11.4 mph18.3 kmh 30.36 in1028.1 mb 0.00 in0.0 mm 0.00 in0.0 mm 0.00 in0.0 mm
04:50 PM 59.6°F15.3°C 42.4°F5.8°C 53% 6.5 mph E10.5 kmh E 10.7 mph17.2 kmh 30.36 in1028.1 mb 0.00 in0.0 mm 0.00 in0.0 mm 0.00 in0.0 mm
04:55 PM 59.7°F15.4°C 42.5°F5.8°C 53% 6.2 mph E10.0 kmh E 7.6 mph12.2 kmh 30.36 in1028.1 mb 0.00 in0.0 mm 0.00 in0.0 mm 0.00 in0.0 mm
05:00 PM 59.6°F15.3°C 41.8°F5.4°C 52% 5.4 mph E8.7 kmh E 10.7 mph17.2 kmh 30.36 in1028.1 mb 0.00 in0.0 mm 0.00 in0.0 mm 0.00 in0.0 mm
05:05 PM 59.4°F15.2°C 41.8°F5.4°C 52% 5.5 mph E8.9 kmh E 7.4 mph11.9 kmh 30.36 in1028.1 mb 0.00 in0.0 mm 0.00 in0.0 mm 0.00 in0.0 mm
05:10 PM 59.3°F15.2°C 41.7°F5.4°C 52% 5.8 mph E9.3 kmh E 10.1 mph16.3 kmh 30.36 in1028.1 mb 0.00 in0.0 mm 0.00 in0.0 mm 0.00 in0.0 mm
05:15 PM 59.2°F15.1°C 41.6°F5.3°C 52% 5.8 mph E9.3 kmh E 7.6 mph12.2 kmh 30.36 in1028.1 mb 0.00 in0.0 mm 0.00 in0.0 mm 0.00 in0.0 mm
05:20 PM 58.9°F14.9°C 41.7°F5.4°C 53% 5.8 mph ENE9.3 kmh ENE 8.5 mph13.7 kmh 30.36 in1028.1 mb 0.00 in0.0 mm 0.00 in0.0 mm 0.00 in0.0 mm
05:25 PM 58.6°F14.8°C 41.5°F5.3°C 53% 5.9 mph ENE9.5 kmh ENE 8.7 mph14.0 kmh 30.37 in1028.4 mb 0.00 in0.0 mm 0.00 in0.0 mm 0.00 in0.0 mm
05:30 PM 58.4°F14.7°C 41.8°F5.4°C 54% 6.3 mph ENE10.1 kmh ENE 8.7 mph14.0 kmh 30.37 in1028.4 mb 0.00 in0.0 mm 0.00 in0.0 mm 0.00 in0.0 mm
05:35 PM 58.3°F14.6°C 42.0°F5.6°C 55% 6.3 mph ENE10.1 kmh ENE 7.6 mph12.2 kmh 30.37 in1028.4 mb 0.00 in0.0 mm 0.00 in0.0 mm 0.00 in0.0 mm
05:40 PM 58.1°F14.5°C 42.1°F5.6°C 55% 6.5 mph ENE10.5 kmh ENE 6.5 mph10.5 kmh 30.37 in1028.4 mb 0.00 in0.0 mm 0.00 in0.0 mm 0.00 in0.0 mm
05:45 PM 58.0°F14.4°C 41.9°F5.5°C 55% 5.9 mph ENE9.5 kmh ENE 6.5 mph10.5 kmh 30.38 in1028.8 mb 0.00 in0.0 mm 0.00 in0.0 mm 0.00 in0.0 mm
05:50 PM 57.9°F14.4°C 42.0°F5.6°C 55% 4.3 mph ENE6.9 kmh ENE 5.8 mph9.3 kmh 30.38 in1028.8 mb 0.00 in0.0 mm 0.00 in0.0 mm 0.00 in0.0 mm
05:55 PM 57.7°F14.3°C 42.1°F5.6°C 56% 4.3 mph ENE6.9 kmh ENE 6.3 mph10.1 kmh 30.38 in1028.8 mb 0.00 in0.0 mm 0.00 in0.0 mm 0.00 in0.0 mm
06:00 PM 57.7°F14.3°C 42.1°F5.6°C 56% 4.3 mph NE6.9 kmh NE 6.5 mph10.5 kmh 30.38 in1028.8 mb 0.00 in0.0 mm 0.00 in0.0 mm 0.00 in0.0 mm
06:05 PM 57.6°F14.2°C 42.0°F5.6°C 56% 4.5 mph NE7.2 kmh NE 7.4 mph11.9 kmh 30.38 in1028.8 mb 0.00 in0.0 mm 0.00 in0.0 mm 0.00 in0.0 mm
06:10 PM 57.4°F14.1°C 42.1°F5.6°C 57% 5.1 mph NE8.2 kmh NE 7.4 mph11.9 kmh 30.38 in1028.8 mb 0.00 in0.0 mm 0.00 in0.0 mm 0.00 in0.0 mm
06:15 PM 57.4°F14.1°C 41.9°F5.5°C 56% 5.3 mph NE8.5 kmh NE 8.5 mph13.7 kmh 30.38 in1028.8 mb 0.00 in0.0 mm 0.00 in0.0 mm 0.00 in0.0 mm
06:20 PM 57.4°F14.1°C 41.8°F5.4°C 56% 5.8 mph NE9.3 kmh NE 6.5 mph10.5 kmh 30.38 in1028.8 mb 0.00 in0.0 mm 0.00 in0.0 mm 0.00 in0.0 mm
06:25 PM 57.3°F14.1°C 41.8°F5.4°C 56% 5.3 mph NE8.5 kmh NE 5.8 mph9.3 kmh 30.38 in1028.8 mb 0.00 in0.0 mm 0.00 in0.0 mm 0.00 in0.0 mm
06:30 PM 57.2°F14.0°C 41.7°F5.4°C 56% 4.0 mph NE6.4 kmh NE 4.3 mph6.9 kmh 30.38 in1028.8 mb 0.00 in0.0 mm 0.00 in0.0 mm 0.00 in0.0 mm
06:35 PM 57.0°F13.9°C 42.0°F5.6°C 57% 3.7 mph NE6.0 kmh NE 4.0 mph6.4 kmh 30.38 in1028.8 mb 0.00 in0.0 mm 0.00 in0.0 mm 0.00 in0.0 mm
06:40 PM 56.9°F13.8°C 41.9°F5.5°C 57% 2.9 mph N4.7 kmh N 4.3 mph6.9 kmh 30.38 in1028.8 mb 0.00 in0.0 mm 0.00 in0.0 mm 0.00 in0.0 mm
06:45 PM 56.7°F13.7°C 41.8°F5.4°C 57% 3.0 mph 4.8 kmh 3.6 mph5.8 kmh 30.38 in1028.8 mb 0.00 in0.0 mm 0.00 in0.0 mm 0.00 in0.0 mm
06:50 PM 56.7°F13.7°C 42.1°F5.6°C 58% 3.1 mph N5.0 kmh N 3.6 mph5.8 kmh 30.38 in1028.8 mb 0.00 in0.0 mm 0.00 in0.0 mm 0.00 in0.0 mm
06:55 PM 56.6°F13.7°C 42.0°F5.6°C 58% 3.1 mph 5.0 kmh 3.1 mph5.0 kmh 30.38 in1028.8 mb 0.00 in0.0 mm 0.00 in0.0 mm 0.00 in0.0 mm
07:00 PM 56.5°F13.6°C 42.2°F5.7°C 59% 2.9 mph N4.7 kmh N 2.9 mph4.7 kmh 30.38 in1028.8 mb 0.00 in0.0 mm 0.00 in0.0 mm 0.00 in0.0 mm
07:05 PM 56.5°F13.6°C 42.3°F5.7°C 59% 2.7 mph N4.3 kmh N 4.0 mph6.4 kmh 30.38 in1028.8 mb 0.00 in0.0 mm 0.00 in0.0 mm 0.00 in0.0 mm
07:10 PM 56.2°F13.4°C 42.1°F5.6°C 59% 2.0 mph N3.2 kmh N 4.3 mph6.9 kmh 30.39 in1029.1 mb 0.00 in0.0 mm 0.00 in0.0 mm 0.00 in0.0 mm
07:15 PM 56.1°F13.4°C 42.0°F5.6°C 59% 2.3 mph N3.7 kmh N 4.7 mph7.6 kmh 30.39 in1029.1 mb 0.00 in0.0 mm 0.00 in0.0 mm 0.00 in0.0 mm
07:20 PM 56.1°F13.4°C 41.9°F5.5°C 59% 3.1 mph N5.0 kmh N 5.1 mph8.2 kmh 30.39 in1029.1 mb 0.00 in0.0 mm 0.00 in0.0 mm 0.00 in0.0 mm
07:25 PM 55.9°F13.3°C 41.8°F5.4°C 59% 3.4 mph N5.5 kmh N 4.7 mph7.6 kmh 30.39 in1029.1 mb 0.00 in0.0 mm 0.00 in0.0 mm 0.00 in0.0 mm
07:30 PM 55.9°F13.3°C 41.8°F5.4°C 59% 4.0 mph N6.4 kmh N 4.7 mph7.6 kmh 30.39 in1029.1 mb 0.00 in0.0 mm 0.00 in0.0 mm 0.00 in0.0 mm
07:35 PM 56.0°F13.3°C 41.8°F5.4°C 59% 3.8 mph N6.1 kmh N 4.0 mph6.4 kmh 30.39 in1029.1 mb 0.00 in0.0 mm 0.00 in0.0 mm 0.00 in0.0 mm
07:40 PM 55.8°F13.2°C 41.7°F5.4°C 59% 3.1 mph N5.0 kmh N 4.3 mph6.9 kmh 30.39 in1029.1 mb 0.00 in0.0 mm 0.00 in0.0 mm 0.00 in0.0 mm
07:45 PM 55.8°F13.2°C 41.7°F5.4°C 59% 3.1 mph N5.0 kmh N 4.0 mph6.4 kmh 30.39 in1029.1 mb 0.00 in0.0 mm 0.00 in0.0 mm 0.00 in0.0 mm
07:50 PM 55.6°F13.1°C 41.9°F5.5°C 60% 3.1 mph N5.0 kmh N 3.6 mph5.8 kmh 30.39 in1029.1 mb 0.00 in0.0 mm 0.00 in0.0 mm 0.00 in0.0 mm
07:55 PM 55.5°F13.1°C 41.9°F5.5°C 60% 3.1 mph N5.0 kmh N 4.7 mph7.6 kmh 30.39 in1029.1 mb 0.00 in0.0 mm 0.00 in0.0 mm 0.00 in0.0 mm
08:00 PM 55.3°F12.9°C 41.7°F5.4°C 60% 2.9 mph NNW4.7 kmh NNW 4.0 mph6.4 kmh 30.39 in1029.1 mb 0.00 in0.0 mm 0.00 in0.0 mm 0.00 in0.0 mm
08:05 PM 55.2°F12.9°C 41.7°F5.4°C 60% 3.0 mph NNW4.8 kmh NNW 4.7 mph7.6 kmh 30.39 in1029.1 mb 0.00 in0.0 mm 0.00 in0.0 mm 0.00 in0.0 mm
08:10 PM 55.1°F12.8°C 41.9°F5.5°C 61% 3.1 mph NNW5.0 kmh NNW 5.1 mph8.2 kmh 30.40 in1029.5 mb 0.00 in0.0 mm 0.00 in0.0 mm 0.00 in0.0 mm
08:15 PM 54.9°F12.7°C 41.7°F5.4°C 61% 3.2 mph NNW5.1 kmh NNW 4.7 mph7.6 kmh 30.40 in1029.5 mb 0.00 in0.0 mm 0.00 in0.0 mm 0.00 in0.0 mm
08:20 PM 54.9°F12.7°C 41.7°F5.4°C 61% 3.6 mph NNW5.8 kmh NNW 4.3 mph6.9 kmh 30.40 in1029.5 mb 0.00 in0.0 mm 0.00 in0.0 mm 0.00 in0.0 mm
08:25 PM 55.0°F12.8°C 41.8°F5.4°C 61% 3.7 mph NNW6.0 kmh NNW 6.9 mph11.1 kmh 30.40 in1029.5 mb 0.00 in0.0 mm 0.00 in0.0 mm 0.00 in0.0 mm
08:30 PM 55.0°F12.8°C 41.8°F5.4°C 61% 4.0 mph N6.4 kmh N 5.8 mph9.3 kmh 30.40 in1029.5 mb 0.00 in0.0 mm 0.00 in0.0 mm 0.00 in0.0 mm
08:35 PM 55.0°F12.8°C 41.8°F5.4°C 61% 4.1 mph N6.6 kmh N 5.4 mph8.7 kmh 30.40 in1029.5 mb 0.00 in0.0 mm 0.00 in0.0 mm 0.00 in0.0 mm
08:40 PM 55.0°F12.8°C 41.8°F5.4°C 61% 4.3 mph N6.9 kmh N 5.8 mph9.3 kmh 30.41 in1029.8 mb 0.00 in0.0 mm 0.00 in0.0 mm 0.00 in0.0 mm
08:45 PM 54.9°F12.7°C 41.7°F5.4°C 61% 4.4 mph N7.1 kmh N 5.8 mph9.3 kmh 30.41 in1029.8 mb 0.00 in0.0 mm 0.00 in0.0 mm 0.00 in0.0 mm
08:50 PM 54.7°F12.6°C 41.7°F5.4°C 61% 4.7 mph N7.6 kmh N 6.3 mph10.1 kmh 30.41 in1029.8 mb 0.00 in0.0 mm 0.00 in0.0 mm 0.00 in0.0 mm
08:55 PM 54.7°F12.6°C 41.9°F5.5°C 62% 4.7 mph N7.6 kmh N 6.3 mph10.1 kmh 30.41 in1029.8 mb 0.00 in0.0 mm 0.00 in0.0 mm 0.00 in0.0 mm
09:00 PM 54.7°F12.6°C 41.9°F5.5°C 62% 4.7 mph N7.6 kmh N 6.3 mph10.1 kmh 30.41 in1029.8 mb 0.00 in0.0 mm 0.00 in0.0 mm 0.00 in0.0 mm
09:05 PM 54.6°F12.6°C 41.8°F5.4°C 62% 4.6 mph N7.4 kmh N 6.3 mph10.1 kmh 30.41 in1029.8 mb 0.00 in0.0 mm 0.00 in0.0 mm 0.00 in0.0 mm
09:10 PM 54.4°F12.4°C 41.6°F5.3°C 62% 4.3 mph N6.9 kmh N 6.3 mph10.1 kmh 30.41 in1029.8 mb 0.00 in0.0 mm 0.00 in0.0 mm 0.00 in0.0 mm
09:15 PM 54.2°F12.3°C 41.6°F5.3°C 62% 4.3 mph N6.9 kmh N 5.8 mph9.3 kmh 30.41 in1029.8 mb 0.00 in0.0 mm 0.00 in0.0 mm 0.00 in0.0 mm
09:20 PM 54.0°F12.2°C 41.7°F5.4°C 63% 4.3 mph NNW6.9 kmh NNW 5.4 mph8.7 kmh 30.41 in1029.8 mb 0.00 in0.0 mm 0.00 in0.0 mm 0.00 in0.0 mm
09:25 PM 53.6°F12.0°C 41.4°F5.2°C 63% 4.3 mph NW6.9 kmh NW 5.4 mph8.7 kmh 30.41 in1029.8 mb 0.00 in0.0 mm 0.00 in0.0 mm 0.00 in0.0 mm
09:30 PM 53.2°F11.8°C 41.3°F5.2°C 64% 4.3 mph NW6.9 kmh NW 5.8 mph9.3 kmh 30.41 in1029.8 mb 0.00 in0.0 mm 0.00 in0.0 mm 0.00 in0.0 mm
09:35 PM 52.8°F11.6°C 41.3°F5.2°C 65% 4.2 mph WNW6.8 kmh WNW 6.3 mph10.1 kmh 30.41 in1029.8 mb 0.00 in0.0 mm 0.00 in0.0 mm 0.00 in0.0 mm
09:40 PM 52.5°F11.4°C 41.4°F5.2°C 66% 4.0 mph WNW6.4 kmh WNW 7.4 mph11.9 kmh 30.41 in1029.8 mb 0.00 in0.0 mm 0.00 in0.0 mm 0.00 in0.0 mm
09:45 PM 52.2°F11.2°C 41.2°F5.1°C 66% 4.1 mph W6.6 kmh W 5.8 mph9.3 kmh 30.41 in1029.8 mb 0.00 in0.0 mm 0.00 in0.0 mm 0.00 in0.0 mm
09:50 PM 52.0°F11.1°C 41.3°F5.2°C 67% 4.3 mph WSW6.9 kmh WSW 5.1 mph8.2 kmh 30.41 in1029.8 mb 0.00 in0.0 mm 0.00 in0.0 mm 0.00 in0.0 mm
09:55 PM 51.7°F10.9°C 41.2°F5.1°C 67% 4.2 mph W6.8 kmh W 5.8 mph9.3 kmh 30.41 in1029.8 mb 0.00 in0.0 mm 0.00 in0.0 mm 0.00 in0.0 mm
10:00 PM 51.5°F10.8°C 41.3°F5.2°C 68% 4.0 mph W6.4 kmh W 6.3 mph10.1 kmh 30.41 in1029.8 mb 0.00 in0.0 mm 0.00 in0.0 mm 0.00 in0.0 mm
10:05 PM 51.3°F10.7°C 41.2°F5.1°C 68% 4.0 mph W6.4 kmh W 4.7 mph7.6 kmh 30.41 in1029.8 mb 0.00 in0.0 mm 0.00 in0.0 mm 0.00 in0.0 mm
10:10 PM 51.2°F10.7°C 41.4°F5.2°C 69% 4.0 mph W6.4 kmh W 5.1 mph8.2 kmh 30.41 in1029.8 mb 0.00 in0.0 mm 0.00 in0.0 mm 0.00 in0.0 mm
10:15 PM 51.1°F10.6°C 41.3°F5.2°C 69% 4.0 mph W6.4 kmh W 5.4 mph8.7 kmh 30.41 in1029.8 mb 0.00 in0.0 mm 0.00 in0.0 mm 0.00 in0.0 mm
10:20 PM 50.9°F10.5°C 41.2°F5.1°C 69% 4.0 mph W6.4 kmh W 5.1 mph8.2 kmh 30.41 in1029.8 mb 0.00 in0.0 mm 0.00 in0.0 mm 0.00 in0.0 mm
10:25 PM 50.7°F10.4°C 41.3°F5.2°C 70% 4.1 mph W6.6 kmh W 5.1 mph8.2 kmh 30.41 in1029.8 mb 0.00 in0.0 mm 0.00 in0.0 mm 0.00 in0.0 mm
10:30 PM 50.7°F10.4°C 41.3°F5.2°C 70% 4.3 mph W6.9 kmh W 5.1 mph8.2 kmh 30.42 in1030.1 mb 0.00 in0.0 mm 0.00 in0.0 mm 0.00 in0.0 mm
10:35 PM 50.6°F10.3°C 41.1°F5.1°C 70% 4.1 mph W6.6 kmh W 4.3 mph6.9 kmh 30.42 in1030.1 mb 0.00 in0.0 mm 0.00 in0.0 mm 0.00 in0.0 mm
10:40 PM 50.5°F10.3°C 41.3°F5.2°C 70% 3.6 mph WNW5.8 kmh WNW 4.3 mph6.9 kmh 30.41 in1029.8 mb 0.00 in0.0 mm 0.00 in0.0 mm 0.00 in0.0 mm
10:45 PM 50.6°F10.3°C 41.6°F5.3°C 71% 3.5 mph WNW5.6 kmh WNW 5.4 mph8.7 kmh 30.41 in1029.8 mb 0.00 in0.0 mm 0.00 in0.0 mm 0.00 in0.0 mm
10:50 PM 50.8°F10.4°C 41.7°F5.4°C 71% 3.1 mph NW5.0 kmh NW 6.5 mph10.5 kmh 30.41 in1029.8 mb 0.00 in0.0 mm 0.00 in0.0 mm 0.00 in0.0 mm
10:55 PM 50.9°F10.5°C 41.5°F5.3°C 70% 3.7 mph NW6.0 kmh NW 6.5 mph10.5 kmh 30.41 in1029.8 mb 0.00 in0.0 mm 0.00 in0.0 mm 0.00 in0.0 mm
11:00 PM 50.7°F10.4°C 41.3°F5.2°C 70% 5.1 mph NW8.2 kmh NW 6.3 mph10.1 kmh 30.41 in1029.8 mb 0.00 in0.0 mm 0.00 in0.0 mm 0.00 in0.0 mm
11:05 PM 50.6°F10.3°C 41.2°F5.1°C 70% 4.9 mph NW7.9 kmh NW 6.5 mph10.5 kmh 30.41 in1029.8 mb 0.00 in0.0 mm 0.00 in0.0 mm 0.00 in0.0 mm
11:10 PM 50.5°F10.3°C 41.1°F5.1°C 70% 4.3 mph WNW6.9 kmh WNW 6.3 mph10.1 kmh 30.41 in1029.8 mb 0.00 in0.0 mm 0.00 in0.0 mm 0.00 in0.0 mm
11:15 PM 50.3°F10.2°C 40.9°F4.9°C 70% 4.3 mph WNW6.9 kmh WNW 5.1 mph8.2 kmh 30.41 in1029.8 mb 0.00 in0.0 mm 0.00 in0.0 mm 0.00 in0.0 mm
11:20 PM 50.1°F10.1°C 41.1°F5.1°C 71% 4.3 mph W6.9 kmh W 5.1 mph8.2 kmh 30.41 in1029.8 mb 0.00 in0.0 mm 0.00 in0.0 mm 0.00 in0.0 mm
11:25 PM 49.8°F9.9°C 40.8°F4.9°C 71% 4.2 mph W6.8 kmh W 5.1 mph8.2 kmh 30.41 in1029.8 mb 0.00 in0.0 mm 0.00 in0.0 mm 0.00 in0.0 mm
11:30 PM 49.7°F9.8°C 40.7°F4.8°C 71% 4.0 mph W6.4 kmh W 5.4 mph8.7 kmh 30.41 in1029.8 mb 0.00 in0.0 mm 0.00 in0.0 mm 0.00 in0.0 mm
11:35 PM 49.6°F9.8°C 40.7°F4.8°C 71% 4.3 mph W6.9 kmh W 8.5 mph13.7 kmh 30.41 in1029.8 mb 0.00 in0.0 mm 0.00 in0.0 mm 0.00 in0.0 mm
11:40 PM 49.5°F9.7°C 40.8°F4.9°C 72% 5.1 mph W8.2 kmh W 8.7 mph14.0 kmh 30.41 in1029.8 mb 0.00 in0.0 mm 0.00 in0.0 mm 0.00 in0.0 mm
11:45 PM 49.4°F9.7°C 40.8°F4.9°C 72% 5.4 mph W8.7 kmh W 8.7 mph14.0 kmh 30.41 in1029.8 mb 0.00 in0.0 mm 0.00 in0.0 mm 0.00 in0.0 mm
11:50 PM 49.3°F9.6°C 40.7°F4.8°C 72% 6.3 mph W10.1 kmh W 9.6 mph15.4 kmh 30.41 in1029.8 mb 0.00 in0.0 mm 0.00 in0.0 mm 0.00 in0.0 mm
11:55 PM 49.3°F9.6°C 40.6°F4.8°C 72% 6.3 mph W10.1 kmh W 8.5 mph13.7 kmh 30.40 in1029.5 mb 0.00 in0.0 mm 0.00 in0.0 mm 0.00 in0.0 mm